Time;durP1;ratioP1;P1;durP2;ratioP2;P2;SDS_P1;SDS_P2;PMS_P1;PMS_P2;Temp;Humidity;BMP_temperature;BMP_pressure;BME280_temperature;BME280_humidity;BME280_pressure;Samples;Min_cycle;Max_cycle;Signal;HPM_P1;HPM_P2
2024/01/03 00:01:29;;;;;;;10.18;0.90;;;10.00;99.90;;;;;;5005131;28;20053;-65
2024/01/03 00:03:55;;;;;;;3.97;0.43;;;10.00;99.90;;;;;;5003076;28;20049;-65
2024/01/03 00:06:21;;;;;;;4.80;0.50;;;9.90;99.90;;;;;;5018286;28;20434;-64
2024/01/03 00:08:47;;;;;;;3.38;0.40;;;9.90;99.90;;;;;;5007364;28;20332;-65
2024/01/03 00:11:20;;;;;;;8.27;0.80;;;9.80;99.90;;;;;;5038998;28;20159;-65
2024/01/03 00:14:05;;;;;;;8.73;1.05;;;9.80;99.90;;;;;;5009155;28;20069;-65
2024/01/03 00:16:33;;;;;;;9.05;0.82;;;9.80;99.90;;;;;;5009184;28;20569;-65
2024/01/03 00:18:59;;;;;;;3.75;0.70;;;9.70;99.90;;;;;;5022433;28;20048;-65
2024/01/03 00:21:26;;;;;;;;;;;9.70;99.90;;;;;;5010899;28;20068;-64
2024/01/03 00:23:52;;;;;;;5.45;0.45;;;9.60;99.90;;;;;;5035842;28;19917;-65
2024/01/03 00:26:18;;;;;;;;;;;9.50;99.90;;;;;;5037717;28;20421;-64
2024/01/03 00:28:44;;;;;;;7.03;1.42;;;9.50;99.90;;;;;;5010516;28;19948;-65
2024/01/03 00:31:31;;;;;;;4.13;0.55;;;9.40;99.90;;;;;;5010280;28;20058;-65
2024/01/03 00:33:57;;;;;;;6.95;1.50;;;9.40;99.90;;;;;;4997187;28;20104;-65
2024/01/03 00:36:23;;;;;;;6.13;0.63;;;9.40;99.90;;;;;;5042252;28;20041;-65
2024/01/03 00:38:48;;;;;;;8.20;0.40;;;9.30;99.90;;;;;;5013744;28;20034;-65
2024/01/03 00:41:14;;;;;;;9.00;0.73;;;9.40;99.90;;;;;;5010362;28;20172;-65
2024/01/03 00:43:40;;;;;;;6.28;0.60;;;9.30;99.90;;;;;;5008788;28;20497;-65
2024/01/03 00:46:08;;;;;;;4.17;0.60;;;9.30;99.90;;;;;;5008977;28;20053;-65
2024/01/03 00:48:34;;;;;;;3.15;0.73;;;9.30;99.90;;;;;;5009890;28;20277;-65
2024/01/03 00:51:01;;;;;;;6.35;0.40;;;9.30;99.90;;;;;;5009466;28;20060;-65
2024/01/03 00:53:28;;;;;;;7.50;1.42;;;9.30;99.90;;;;;;5008765;28;20065;-65
2024/01/03 00:55:53;;;;;;;6.68;0.80;;;9.30;99.90;;;;;;5008163;28;20038;-65
2024/01/03 00:58:19;;;;;;;5.00;0.77;;;9.30;99.90;;;;;;5009556;28;20172;-65
2024/01/03 01:00:46;;;;;;;9.68;1.17;;;9.30;99.90;;;;;;5009582;28;20026;-65
2024/01/03 01:03:12;;;;;;;7.32;0.50;;;9.30;99.90;;;;;;5009623;28;20375;-65
2024/01/03 01:05:38;;;;;;;9.18;0.60;;;9.30;99.90;;;;;;5010021;28;20044;-65
2024/01/03 01:08:05;;;;;;;11.65;0.88;;;9.20;99.90;;;;;;5009308;28;20045;-65
2024/01/03 01:10:30;;;;;;;11.35;1.15;;;9.20;99.90;;;;;;5009364;28;20084;-65
2024/01/03 01:12:56;;;;;;;11.00;1.53;;;9.20;99.90;;;;;;5009176;28;20038;-65
2024/01/03 01:15:22;;;;;;;5.30;0.95;;;9.20;99.90;;;;;;5009466;28;20049;-64
2024/01/03 01:17:47;;;;;;;2.65;0.43;;;9.20;99.90;;;;;;5008129;28;20037;-65
2024/01/03 01:20:13;;;;;;;4.50;0.43;;;9.20;99.90;;;;;;5008067;28;20034;-65
2024/01/03 01:22:39;;;;;;;6.68;0.85;;;9.20;99.90;;;;;;5009507;28;20034;-65
2024/01/03 01:25:05;;;;;;;4.95;0.70;;;9.10;99.90;;;;;;5007529;28;20033;-66
2024/01/03 01:27:30;;;;;;;6.30;0.63;;;9.10;99.90;;;;;;5010590;28;20421;-65
2024/01/03 01:29:56;;;;;;;5.27;1.07;;;9.10;99.90;;;;;;5006976;28;20038;-65
2024/01/03 01:32:22;;;;;;;8.77;0.90;;;9.00;99.90;;;;;;5011651;28;20044;-65
2024/01/03 01:34:47;;;;;;;11.27;1.20;;;9.00;99.90;;;;;;5005879;28;20376;-65
2024/01/03 01:37:13;;;;;;;8.27;0.80;;;9.00;99.90;;;;;;5010638;28;20494;-65
2024/01/03 01:39:38;;;;;;;9.40;1.20;;;9.00;99.90;;;;;;5007682;28;20125;-65
2024/01/03 01:42:04;;;;;;;10.43;0.73;;;9.10;99.90;;;;;;5008770;28;20041;-65
2024/01/03 01:44:30;;;;;;;4.93;0.65;;;9.10;99.90;;;;;;5008187;28;20037;-65
2024/01/03 01:46:56;;;;;;;9.30;0.90;;;9.10;99.90;;;;;;5007170;28;20042;-65
2024/01/03 01:49:22;;;;;;;10.02;0.93;;;9.10;99.90;;;;;;5007789;28;20490;-65
2024/01/03 01:51:48;;;;;;;3.92;0.63;;;9.10;99.90;;;;;;5008697;28;20048;-64
2024/01/03 01:54:14;;;;;;;5.37;0.90;;;9.10;99.90;;;;;;5008601;28;20528;-64
2024/01/03 01:56:40;;;;;;;;;;;9.10;99.90;;;;;;5009329;28;20304;-65
2024/01/03 01:59:10;;;;;;;4.90;0.90;;;9.10;99.90;;;;;;5007760;28;19921;-65
2024/01/03 02:01:36;;;;;;;6.30;0.50;;;9.10;99.90;;;;;;5007928;28;20034;-65
2024/01/03 02:04:07;;;;;;;4.90;1.08;;;9.20;99.90;;;;;;5008311;28;20033;-65
2024/01/03 02:06:33;;;;;;;4.00;0.40;;;9.20;99.90;;;;;;5007101;28;20168;-65
2024/01/03 02:08:59;;;;;;;;;;;9.20;99.90;;;;;;5008272;28;20042;-65
2024/01/03 02:11:24;;;;;;;6.30;0.50;;;9.20;99.90;;;;;;5035063;28;19944;-65
2024/01/03 02:13:50;;;;;;;2.63;0.90;;;9.20;99.90;;;;;;5008327;28;20463;-65
2024/01/03 02:16:15;;;;;;;4.90;0.50;;;9.20;99.90;;;;;;5007561;28;20045;-65
2024/01/03 02:18:43;;;;;;;4.60;0.40;;;9.20;99.90;;;;;;5006259;28;20060;-65
2024/01/03 02:21:16;;;;;;;3.30;0.85;;;9.20;99.90;;;;;;5006212;28;20038;-65
2024/01/03 02:23:43;;;;;;;4.68;0.30;;;9.20;99.90;;;;;;5005412;28;20438;-64
2024/01/03 02:26:09;;;;;;;2.85;0.35;;;9.20;99.90;;;;;;5008546;28;20053;-65
2024/01/03 02:28:35;;;;;;;2.92;0.40;;;9.10;99.90;;;;;;5008412;28;20038;-65
2024/01/03 02:31:01;;;;;;;;;;;9.10;99.90;;;;;;5007503;28;20116;-65
2024/01/03 02:33:27;;;;;;;6.03;0.40;;;9.10;99.90;;;;;;5007751;28;20008;-65
2024/01/03 02:35:52;;;;;;;6.83;1.10;;;9.00;99.90;;;;;;5002520;28;20030;-65
2024/01/03 02:38:18;;;;;;;7.40;0.90;;;9.00;99.90;;;;;;5038596;28;20298;-65
2024/01/03 02:40:44;;;;;;;6.07;0.68;;;8.90;99.90;;;;;;5008257;28;20888;-65
2024/01/03 02:43:10;;;;;;;6.97;0.70;;;8.90;99.90;;;;;;5008076;28;20541;-65
2024/01/03 02:45:36;;;;;;;7.18;1.08;;;8.90;99.90;;;;;;5007898;28;20095;-64
2024/01/03 02:48:02;;;;;;;7.78;0.73;;;8.90;99.90;;;;;;5008166;28;20441;-64
2024/01/03 02:50:28;;;;;;;11.07;1.48;;;9.00;99.90;;;;;;5006856;28;20046;-65
2024/01/03 02:52:53;;;;;;;10.93;1.20;;;9.00;99.90;;;;;;5007141;28;20486;-65
2024/01/03 02:55:20;;;;;;;12.10;1.17;;;9.00;99.90;;;;;;5007505;28;20281;-65
2024/01/03 02:57:46;;;;;;;11.35;1.60;;;9.10;99.90;;;;;;5032939;28;20220;-65
2024/01/03 03:00:12;;;;;;;12.38;1.88;;;9.10;99.90;;;;;;5007042;28;20042;-65
2024/01/03 03:02:38;;;;;;;9.77;1.45;;;9.20;99.90;;;;;;5008118;28;20064;-65
2024/01/03 03:05:04;;;;;;;12.00;1.95;;;9.20;99.90;;;;;;5006635;28;20104;-64
2024/01/03 03:07:30;;;;;;;12.95;1.98;;;9.20;99.90;;;;;;5007062;28;20447;-65
2024/01/03 03:09:55;;;;;;;8.17;1.40;;;9.20;99.90;;;;;;5006946;28;20041;-65
2024/01/03 03:12:21;;;;;;;10.77;1.47;;;9.20;99.90;;;;;;5006723;28;20438;-65
2024/01/03 03:14:47;;;;;;;12.90;2.17;;;9.20;99.90;;;;;;5006441;28;20281;-65
2024/01/03 03:17:12;;;;;;;18.23;2.33;;;9.20;99.90;;;;;;5006569;28;20048;-65
2024/01/03 03:19:39;;;;;;;20.17;2.63;;;9.20;99.90;;;;;;5006530;28;20808;-65
2024/01/03 03:22:04;;;;;;;;;;;9.20;99.90;;;;;;5007824;28;20067;-65
2024/01/03 03:24:30;;;;;;;12.85;2.10;;;9.20;99.90;;;;;;5007276;28;20029;-64
2024/01/03 03:26:56;;;;;;;12.88;2.50;;;9.20;99.90;;;;;;5006949;28;20064;-64
2024/01/03 03:29:21;;;;;;;17.53;2.40;;;9.30;99.90;;;;;;5018395;22;20125;-65
2024/01/03 03:31:47;;;;;;;11.63;2.53;;;9.30;99.90;;;;;;4983376;28;20774;-65
2024/01/03 03:34:16;;;;;;;15.60;2.17;;;9.40;99.90;;;;;;4986835;28;20081;-65
2024/01/03 03:36:42;;;;;;;23.27;4.07;;;9.50;99.90;;;;;;4980340;28;20347;-65
2024/01/03 03:39:08;;;;;;;22.87;3.10;;;9.50;99.90;;;;;;4982224;28;20054;-64
2024/01/03 03:41:33;;;;;;;15.27;2.88;;;9.60;99.90;;;;;;4963346;28;20043;-65
2024/01/03 03:43:59;;;;;;;13.55;1.65;;;9.60;99.90;;;;;;4967473;28;20050;-65
2024/01/03 03:46:25;;;;;;;15.40;1.90;;;9.70;99.90;;;;;;4966661;28;20043;-66
2024/01/03 03:48:50;;;;;;;14.90;2.42;;;9.70;99.90;;;;;;4963528;28;20526;-65
2024/01/03 03:51:16;;;;;;;15.90;2.20;;;9.70;99.90;;;;;;4968804;28;20431;-64
2024/01/03 03:53:41;;;;;;;19.33;2.53;;;9.80;99.90;;;;;;4969208;28;20075;-65
2024/01/03 03:56:07;;;;;;;21.58;3.30;;;9.80;99.90;;;;;;4968769;28;20482;-65
2024/01/03 03:58:33;;;;;;;15.63;2.33;;;9.80;99.90;;;;;;4967921;28;20106;-64
2024/01/03 04:00:58;;;;;;;21.85;3.20;;;9.80;99.90;;;;;;4967909;28;20056;-65
2024/01/03 04:03:24;;;;;;;8.83;1.53;;;9.90;99.90;;;;;;4967283;28;20055;-65
2024/01/03 04:05:50;;;;;;;16.23;3.15;;;9.90;99.90;;;;;;4968144;28;20332;-65
2024/01/03 04:08:15;;;;;;;22.13;2.37;;;10.00;99.90;;;;;;4969009;28;20401;-65
2024/01/03 04:10:41;;;;;;;18.77;2.30;;;9.90;99.90;;;;;;4966208;28;20046;-65
2024/01/03 04:13:07;;;;;;;16.80;2.50;;;10.00;99.90;;;;;;4967454;28;20491;-68
2024/01/03 04:15:32;;;;;;;16.42;2.17;;;10.00;99.90;;;;;;4969167;28;20043;-65
2024/01/03 04:17:58;;;;;;;21.77;3.80;;;10.00;99.90;;;;;;4967740;28;20109;-65
2024/01/03 04:20:24;;;;;;;12.23;2.53;;;10.00;99.90;;;;;;4967785;28;20042;-65
2024/01/03 04:22:50;;;;;;;20.77;2.85;;;10.00;99.90;;;;;;4969377;28;20031;-65
2024/01/03 04:25:16;;;;;;;14.68;2.22;;;10.00;99.90;;;;;;4963961;28;20053;-64
2024/01/03 04:27:42;;;;;;;;;;;10.00;99.90;;;;;;4968241;28;20081;-64
2024/01/03 04:30:08;;;;;;;21.38;3.13;;;10.00;99.90;;;;;;4966014;28;19934;-65
2024/01/03 04:32:33;;;;;;;21.85;3.38;;;10.00;99.90;;;;;;4966639;28;20440;-64
2024/01/03 04:34:59;;;;;;;12.50;2.33;;;10.00;99.90;;;;;;4967887;28;20034;-65
2024/01/03 04:37:25;;;;;;;19.10;2.43;;;10.10;99.90;;;;;;4964141;28;20298;-65
2024/01/03 04:39:51;;;;;;;18.48;2.25;;;10.00;99.90;;;;;;4967267;28;20274;-64
2024/01/03 04:42:16;;;;;;;16.58;3.03;;;10.00;99.90;;;;;;4965033;28;20042;-64
2024/01/03 04:44:42;;;;;;;15.98;2.03;;;10.00;99.90;;;;;;4968715;28;20045;-64
2024/01/03 04:47:08;;;;;;;15.77;2.10;;;10.00;99.90;;;;;;4965956;28;20384;-64
2024/01/03 04:49:34;;;;;;;19.30;3.53;;;10.00;99.90;;;;;;4967199;28;20491;-64
2024/01/03 04:52:00;;;;;;;;;;;10.00;99.90;;;;;;4969009;28;20039;-65
2024/01/03 04:54:26;;;;;;;12.05;1.25;;;10.00;99.90;;;;;;4967139;28;19924;-65
2024/01/03 04:56:52;;;;;;;13.30;2.57;;;10.00;99.90;;;;;;4964552;28;20035;-64
2024/01/03 04:59:17;;;;;;;22.05;3.28;;;10.10;99.90;;;;;;4963931;28;20298;-64
2024/01/03 05:01:43;;;;;;;17.85;2.83;;;10.10;99.90;;;;;;4964861;28;20045;-64
2024/01/03 05:04:09;;;;;;;20.87;4.00;;;10.10;99.90;;;;;;4963267;28;20046;-65
2024/01/03 05:06:35;;;;;;;16.38;2.90;;;10.00;99.90;;;;;;4968004;28;20070;-65
2024/01/03 05:09:01;;;;;;;;;;;10.10;99.90;;;;;;4968348;28;20043;-65
2024/01/03 05:11:26;;;;;;;21.05;2.53;;;10.00;99.90;;;;;;4967318;28;19921;-64
2024/01/03 05:13:52;;;;;;;12.50;1.88;;;10.00;99.90;;;;;;4969404;28;20023;-65
2024/01/03 05:16:18;;;;;;;13.10;2.13;;;10.00;99.90;;;;;;4970022;28;20031;-66
2024/01/03 05:18:44;;;;;;;22.17;3.65;;;10.00;99.90;;;;;;4968681;28;20191;-65
2024/01/03 05:21:10;;;;;;;17.57;2.57;;;10.00;99.90;;;;;;4966763;28;20089;-65
2024/01/03 05:23:36;;;;;;;11.38;2.40;;;9.90;99.90;;;;;;4966453;28;20038;-65
2024/01/03 05:26:01;;;;;;;12.48;2.83;;;9.90;99.90;;;;;;4966374;28;20043;-65
2024/01/03 05:28:27;;;;;;;20.02;2.55;;;9.90;99.90;;;;;;4965882;28;20112;-65
2024/01/03 05:30:53;;;;;;;24.77;2.80;;;10.00;99.90;;;;;;4966086;28;20484;-65
2024/01/03 05:33:18;;;;;;;16.00;3.00;;;9.90;99.90;;;;;;4965951;28;20294;-65
2024/01/03 05:35:44;;;;;;;21.60;3.10;;;9.90;99.90;;;;;;4966879;28;20301;-66
2024/01/03 05:38:09;;;;;;;15.83;3.13;;;9.70;99.90;;;;;;4966127;28;20282;-65
2024/01/03 05:40:35;;;;;;;23.97;3.90;;;9.60;99.90;;;;;;4957463;28;20514;-65
2024/01/03 05:43:01;;;;;;;33.03;4.13;;;9.50;99.90;;;;;;4962233;28;20038;-65
2024/01/03 05:45:26;;;;;;;23.63;3.50;;;9.50;99.90;;;;;;4967571;28;20419;-65
2024/01/03 05:47:52;;;;;;;17.17;2.73;;;9.40;99.90;;;;;;4968311;28;20031;-65
2024/01/03 05:50:17;;;;;;;21.80;3.00;;;9.40;99.90;;;;;;4963269;28;20046;-65
2024/01/03 05:52:43;;;;;;;24.87;3.67;;;9.40;99.90;;;;;;4967260;28;20367;-65
2024/01/03 05:55:08;;;;;;;16.80;2.20;;;9.40;99.90;;;;;;4968302;28;20730;-65
2024/01/03 05:57:34;;;;;;;21.33;3.13;;;9.50;99.90;;;;;;4966423;28;20039;-65
2024/01/03 06:00:01;;;;;;;13.02;2.42;;;9.50;99.90;;;;;;4967353;28;20035;-65
2024/01/03 06:02:26;;;;;;;;;;;9.60;99.90;;;;;;4965166;28;20038;-65
2024/01/03 06:04:52;;;;;;;10.77;3.05;;;9.70;99.90;;;;;;4964680;28;20383;-65
2024/01/03 06:07:18;;;;;;;20.08;2.95;;;9.70;99.90;;;;;;4965188;28;20042;-65
2024/01/03 06:09:45;;;;;;;18.33;1.93;;;9.70;99.90;;;;;;4967073;28;20030;-67
2024/01/03 06:12:10;;;;;;;16.60;3.22;;;9.80;99.90;;;;;;4965428;28;20289;-65
2024/01/03 06:14:36;;;;;;;12.27;2.03;;;9.80;99.90;;;;;;4967203;28;20039;-65
2024/01/03 06:17:02;;;;;;;14.23;2.67;;;9.80;99.90;;;;;;4963692;28;20038;-65
2024/01/03 06:19:27;;;;;;;21.15;3.05;;;9.80;99.90;;;;;;4962915;28;20097;-65
2024/01/03 06:21:53;;;;;;;13.68;3.33;;;9.80;99.90;;;;;;4964254;28;20496;-65
2024/01/03 06:24:19;;;;;;;19.40;3.40;;;9.90;99.90;;;;;;4967327;28;20689;-66
2024/01/03 06:26:44;;;;;;;28.30;4.05;;;9.90;99.90;;;;;;4964798;28;20038;-66
2024/01/03 06:29:10;;;;;;;11.77;2.10;;;9.80;99.90;;;;;;4964994;28;20035;-65
2024/01/03 06:31:35;;;;;;;10.18;1.83;;;9.90;99.90;;;;;;4966933;28;20050;-65
2024/01/03 06:34:01;;;;;;;19.55;2.10;;;9.90;99.90;;;;;;4964358;28;20514;-65
2024/01/03 06:36:27;;;;;;;21.27;2.63;;;10.00;99.90;;;;;;4949067;28;20490;-64
2024/01/03 06:38:52;;;;;;;14.73;2.63;;;10.00;99.90;;;;;;4965819;28;20035;-65
2024/01/03 06:41:18;;;;;;;21.00;2.63;;;10.00;99.90;;;;;;4961698;28;20274;-64
2024/01/03 06:43:44;;;;;;;22.27;2.17;;;10.00;99.90;;;;;;4965020;28;20093;-65
2024/01/03 06:46:10;;;;;;;19.27;2.78;;;10.00;99.90;;;;;;4966537;28;20282;-65
2024/01/03 06:48:36;;;;;;;23.17;2.87;;;9.90;99.90;;;;;;4964649;28;20053;-65
2024/01/03 06:51:02;;;;;;;17.43;2.63;;;9.90;99.90;;;;;;4965226;28;20284;-65
2024/01/03 06:53:31;;;;;;;22.73;2.83;;;10.00;99.90;;;;;;4964610;28;20047;-65
2024/01/03 06:55:57;;;;;;;20.95;3.60;;;9.90;99.90;;;;;;4963965;28;20047;-65
2024/01/03 06:58:23;;;;;;;19.35;2.22;;;9.90;99.90;;;;;;4964335;28;20049;-65
2024/01/03 07:00:49;;;;;;;23.55;4.05;;;10.00;99.90;;;;;;4962951;28;20550;-65
2024/01/03 07:03:15;;;;;;;18.55;2.78;;;9.90;99.90;;;;;;4961764;28;20043;-65
2024/01/03 07:05:41;;;;;;;12.45;2.38;;;10.00;99.90;;;;;;4965765;28;20121;-65
2024/01/03 07:08:08;;;;;;;20.27;2.80;;;9.90;99.90;;;;;;4963661;28;20134;-65
2024/01/03 07:10:34;;;;;;;15.93;2.38;;;10.00;99.90;;;;;;4963917;28;20047;-65
2024/01/03 07:13:00;;;;;;;14.15;1.98;;;10.00;99.90;;;;;;4965953;28;20034;-65
2024/01/03 07:15:26;;;;;;;22.10;2.92;;;10.00;99.90;;;;;;4966258;28;20030;-65
2024/01/03 07:17:52;;;;;;;12.07;2.38;;;10.00;99.90;;;;;;4968280;28;20035;-65
2024/01/03 07:20:18;;;;;;;23.55;3.38;;;9.90;99.90;;;;;;4969465;28;20031;-66
2024/01/03 07:22:44;;;;;;;21.35;3.08;;;9.90;99.90;;;;;;4968022;28;20070;-65
2024/01/03 07:25:09;;;;;;;15.93;1.93;;;9.90;99.90;;;;;;4970306;28;20101;-65
2024/01/03 07:27:35;;;;;;;24.87;2.73;;;9.90;99.90;;;;;;4969383;28;20282;-64
2024/01/03 07:30:00;;;;;;;21.27;3.60;;;9.80;99.90;;;;;;4968159;28;20043;-65
2024/01/03 07:32:26;;;;;;;22.57;3.10;;;9.80;99.90;;;;;;4968905;28;20290;-65
2024/01/03 07:34:52;;;;;;;21.73;3.60;;;9.70;99.90;;;;;;4968333;28;20034;-65
2024/01/03 07:37:18;;;;;;;32.65;3.15;;;9.70;99.90;;;;;;4965469;28;20459;-65
2024/01/03 07:39:43;;;;;;;21.67;3.73;;;9.70;99.90;;;;;;4965352;28;20042;-65
2024/01/03 07:42:09;;;;;;;27.33;4.77;;;9.70;99.90;;;;;;4965837;28;20047;-65
2024/01/03 07:44:41;;;;;;;28.37;4.33;;;9.70;99.90;;;;;;4965596;28;20278;-66
2024/01/03 07:47:07;;;;;;;20.85;4.13;;;9.70;99.90;;;;;;4967378;28;20053;-65
2024/01/03 07:49:33;;;;;;;18.67;3.20;;;9.70;99.90;;;;;;4967393;28;20035;-66
2024/01/03 07:51:59;;;;;;;27.13;4.10;;;9.70;99.90;;;;;;4965357;28;20504;-66
2024/01/03 07:54:24;;;;;;;23.43;3.50;;;9.60;99.90;;;;;;4965026;28;20843;-66
2024/01/03 07:56:50;;;;;;;19.53;2.40;;;9.70;99.90;;;;;;4965468;28;20039;-66
2024/01/03 07:59:15;;;;;;;14.73;2.97;;;9.70;99.90;;;;;;4969350;28;20074;-65
2024/01/03 08:01:41;;;;;;;21.65;3.90;;;9.70;99.90;;;;;;4969516;28;20046;-65
2024/01/03 08:04:07;;;;;;;20.07;3.90;;;9.70;99.90;;;;;;4967774;28;20041;-65
2024/01/03 08:06:32;;;;;;;21.00;3.70;;;9.70;99.90;;;;;;4967570;28;20377;-65
2024/01/03 08:08:58;;;;;;;22.77;3.40;;;9.70;99.90;;;;;;4963183;28;20480;-65
2024/01/03 08:11:24;;;;;;;29.35;4.00;;;9.70;99.90;;;;;;4969616;28;20039;-65
2024/01/03 08:13:49;;;;;;;30.67;3.40;;;9.70;99.90;;;;;;4966116;28;20500;-65
2024/01/03 08:16:15;;;;;;;30.27;5.00;;;9.70;99.90;;;;;;4967607;28;20035;-65
2024/01/03 08:18:43;;;;;;;33.00;4.17;;;9.70;99.90;;;;;;4965784;28;20381;-65
2024/01/03 08:21:08;;;;;;;21.25;3.13;;;9.70;99.90;;;;;;4964782;28;20051;-65
2024/01/03 08:23:34;;;;;;;21.25;2.60;;;9.60;99.90;;;;;;4969027;28;20114;-65
2024/01/03 08:26:00;;;;;;;25.70;4.33;;;9.60;99.90;;;;;;4967733;28;20109;-65
2024/01/03 08:28:25;;;;;;;19.23;3.70;;;9.60;99.90;;;;;;4967963;28;20355;-64
2024/01/03 08:30:52;;;;;;;24.95;3.92;;;9.60;99.90;;;;;;4968310;28;20046;-65
2024/01/03 08:33:17;;;;;;;18.77;2.92;;;9.50;99.90;;;;;;4969823;28;20038;-65
2024/01/03 08:35:43;;;;;;;20.00;3.60;;;9.50;99.90;;;;;;4965111;28;20377;-65
2024/01/03 08:38:09;;;;;;;22.25;3.13;;;9.50;99.90;;;;;;4964935;28;20066;-65
2024/01/03 08:40:34;;;;;;;23.85;4.28;;;9.50;99.90;;;;;;4967487;28;20034;-63
2024/01/03 08:43:00;;;;;;;23.40;3.27;;;9.50;99.90;;;;;;4970400;28;20117;-65
2024/01/03 08:45:26;;;;;;;24.15;2.92;;;9.40;99.90;;;;;;4968622;28;20147;-66
2024/01/03 08:47:52;;;;;;;19.23;3.93;;;9.40;99.90;;;;;;4968310;28;20424;-65
2024/01/03 08:50:17;;;;;;;18.37;3.60;;;9.40;99.90;;;;;;4965730;28;20035;-65
2024/01/03 08:52:43;;;;;;;27.03;3.87;;;9.40;99.90;;;;;;4963353;28;20061;-65
2024/01/03 08:55:08;;;;;;;20.88;3.25;;;9.40;99.90;;;;;;4966962;28;20042;-64
2024/01/03 08:57:34;;;;;;;16.30;3.33;;;9.40;99.90;;;;;;4963736;28;20118;-65
2024/01/03 09:00:00;;;;;;;17.10;3.30;;;9.40;99.90;;;;;;4966578;28;20252;-65
2024/01/03 09:02:25;;;;;;;18.93;2.83;;;9.40;99.90;;;;;;4964858;28;20454;-65
2024/01/03 09:04:53;;;;;;;18.13;3.00;;;9.40;99.90;;;;;;4965234;28;20038;-65
2024/01/03 09:07:18;;;;;;;14.13;2.10;;;9.40;99.90;;;;;;4963268;28;20288;-66
2024/01/03 09:09:44;;;;;;;11.93;2.27;;;9.40;99.90;;;;;;4964152;28;20443;-65
2024/01/03 09:12:10;;;;;;;15.87;2.87;;;9.40;99.90;;;;;;4965430;28;20550;-66
2024/01/03 09:14:35;;;;;;;15.63;2.67;;;9.40;99.90;;;;;;4968024;28;20038;-65
2024/01/03 09:17:01;;;;;;;12.80;2.37;;;9.50;99.90;;;;;;4964843;28;20352;-65
2024/01/03 09:19:26;;;;;;;9.60;1.83;;;9.50;99.90;;;;;;4965533;28;20047;-66
2024/01/03 09:21:52;;;;;;;16.40;2.47;;;9.50;99.90;;;;;;4965159;28;20507;-65
2024/01/03 09:24:18;;;;;;;16.85;2.60;;;9.50;99.90;;;;;;4964319;28;20058;-65
2024/01/03 09:26:44;;;;;;;15.70;2.95;;;9.50;99.90;;;;;;4967966;28;20046;-64
2024/01/03 09:29:09;;;;;;;11.80;1.60;;;9.50;99.90;;;;;;4966243;28;20578;-65
2024/01/03 09:31:43;;;;;;;17.88;2.70;;;9.60;99.90;;;;;;4966597;28;20419;-65
2024/01/03 09:34:09;;;;;;;12.55;2.67;;;9.80;99.90;;;;;;4963193;28;20141;-65
2024/01/03 09:36:34;;;;;;;14.65;2.60;;;9.90;99.90;;;;;;4968209;28;20386;-65
2024/01/03 09:39:00;;;;;;;20.77;3.17;;;10.00;99.90;;;;;;4962906;28;20039;-65
2024/01/03 09:41:26;;;;;;;16.40;2.80;;;10.10;99.90;;;;;;4962111;28;20039;-65
2024/01/03 09:43:54;;;;;;;16.40;2.72;;;10.10;99.90;;;;;;4963311;28;20059;-66
2024/01/03 09:46:20;;;;;;;18.25;3.05;;;10.20;99.90;;;;;;4963663;28;20050;-65
2024/01/03 09:48:47;;;;;;;19.45;3.05;;;10.20;99.90;;;;;;4964870;28;20039;-64
2024/01/03 09:51:12;;;;;;;19.17;2.30;;;10.20;99.90;;;;;;4965290;28;20125;-65
2024/01/03 09:53:40;;;;;;;17.77;3.13;;;10.20;99.90;;;;;;4966788;28;20470;-64
2024/01/03 09:56:06;;;;;;;16.23;2.55;;;10.10;99.90;;;;;;4946416;28;20528;-65
2024/01/03 09:58:35;;;;;;;24.30;3.40;;;10.10;99.90;;;;;;4965969;28;20097;-64
2024/01/03 10:01:01;;;;;;;16.95;3.95;;;10.00;99.90;;;;;;4966602;28;20041;-65
2024/01/03 10:03:27;;;;;;;17.50;3.42;;;10.00;99.90;;;;;;4963464;28;20121;-64
2024/01/03 10:06:14;;;;;;;21.08;3.03;;;10.00;99.90;;;;;;4964377;28;20170;-64
2024/01/03 10:08:40;;;;;;;20.13;3.72;;;10.00;99.90;;;;;;4964942;28;20042;-64
2024/01/03 10:11:22;;;;;;;;;;;9.90;99.90;;;;;;4962102;28;20496;-64
2024/01/03 10:13:53;;;;;;;18.60;3.13;;;9.90;99.90;;;;;;4965164;28;19917;-64
2024/01/03 10:16:26;;;;;;;22.40;4.15;;;9.90;99.90;;;;;;4964814;28;20039;-64
2024/01/03 10:19:15;;;;;;;27.40;3.45;;;9.90;99.90;;;;;;4964113;28;20499;-64
2024/01/03 10:21:52;;;;;;;24.55;3.80;;;10.00;99.90;;;;;;4963546;28;20047;-64
2024/01/03 10:24:20;;;;;;;19.42;3.55;;;9.90;99.90;;;;;;4965277;28;20046;-64
2024/01/03 10:26:46;;;;;;;30.05;3.78;;;9.90;99.90;;;;;;4963951;28;20072;-65
2024/01/03 10:29:13;;;;;;;20.00;3.20;;;9.90;99.90;;;;;;4965150;28;20511;-64
2024/01/03 10:31:39;;;;;;;21.60;3.72;;;9.90;99.90;;;;;;4964555;28;20063;-65
2024/01/03 10:34:05;;;;;;;27.45;3.88;;;9.90;99.90;;;;;;4966502;28;20496;-64
2024/01/03 10:36:34;;;;;;;22.80;4.03;;;9.90;99.90;;;;;;4964685;28;20069;-64
2024/01/03 10:39:20;;;;;;;20.25;2.88;;;9.90;99.90;;;;;;4962171;28;20507;-64
2024/01/03 10:41:47;;;;;;;;;;;9.90;99.90;;;;;;4962267;28;20491;-65
2024/01/03 10:44:14;;;;;;;24.33;4.18;;;10.00;99.90;;;;;;4964799;28;19965;-64
2024/01/03 10:46:47;;;;;;;17.48;3.63;;;10.00;99.90;;;;;;4961744;28;20053;-64
2024/01/03 10:49:15;;;;;;;19.83;3.70;;;9.90;99.90;;;;;;4962906;28;20047;-64
2024/01/03 10:51:45;;;;;;;18.30;3.70;;;9.90;99.90;;;;;;4963576;28;20038;-65
2024/01/03 10:54:13;;;;;;;19.88;2.53;;;9.90;99.90;;;;;;4964126;28;20058;-64
2024/01/03 10:56:39;;;;;;;12.60;2.30;;;9.80;99.90;;;;;;4959546;28;20027;-64
2024/01/03 10:59:07;;;;;;;22.70;3.13;;;9.80;99.90;;;;;;4964637;28;20487;-64
2024/01/03 11:01:44;;;;;;;12.20;2.15;;;9.80;99.90;;;;;;4961347;28;20439;-64
2024/01/03 11:04:37;;;;;;;15.20;2.63;;;9.70;99.90;;;;;;4961565;28;20052;-65
2024/01/03 11:07:20;;;;;;;7.68;0.85;;;9.70;99.90;;;;;;4965499;28;20054;-65
2024/01/03 11:09:45;;;;;;;7.82;1.20;;;9.70;99.90;;;;;;4958775;28;20043;-65
2024/01/03 11:12:15;;;;;;;6.60;1.13;;;9.60;99.90;;;;;;4964295;28;20054;-65
2024/01/03 11:14:41;;;;;;;10.82;1.55;;;9.60;99.90;;;;;;4964119;28;20044;-65
2024/01/03 11:17:10;;;;;;;7.25;1.75;;;9.60;99.90;;;;;;4962709;28;20035;-65
2024/01/03 11:19:37;;;;;;;15.20;1.83;;;9.50;99.90;;;;;;4961892;28;20093;-65
2024/01/03 11:22:03;;;;;;;8.93;1.38;;;9.50;99.90;;;;;;4961634;28;20039;-65
2024/01/03 11:24:29;;;;;;;11.40;1.77;;;9.50;99.90;;;;;;4963857;28;20055;-65
2024/01/03 11:26:55;;;;;;;11.67;2.10;;;9.50;99.90;;;;;;4962925;28;20043;-64
2024/01/03 11:29:35;;;;;;;12.48;2.03;;;9.40;99.90;;;;;;4963987;28;20122;-65
2024/01/03 11:32:09;;;;;;;7.15;1.17;;;9.40;99.90;;;;;;4963199;28;20118;-64
2024/01/03 11:34:38;;;;;;;8.60;1.73;;;9.30;99.90;;;;;;4963038;28;20114;-65
2024/01/03 11:37:21;;;;;;;3.97;0.65;;;9.30;99.90;;;;;;4962498;28;20531;-65
2024/01/03 11:39:50;;;;;;;11.52;1.38;;;9.40;99.90;;;;;;4959740;28;20328;-65
2024/01/03 11:42:19;;;;;;;7.13;0.70;;;9.40;99.90;;;;;;4960543;28;20055;-65
2024/01/03 11:44:45;;;;;;;7.40;0.90;;;9.40;99.90;;;;;;4963519;28;20031;-65
2024/01/03 11:47:12;;;;;;;4.93;0.63;;;9.30;99.90;;;;;;4962023;28;20054;-65
2024/01/03 11:49:37;;;;;;;4.55;0.75;;;9.30;99.90;;;;;;4959644;28;20047;-64
2024/01/03 11:52:03;;;;;;;7.22;1.02;;;9.20;99.90;;;;;;4964180;28;20043;-64
2024/01/03 11:54:32;;;;;;;9.65;1.20;;;9.20;99.90;;;;;;4962682;28;20049;-65
2024/01/03 11:56:58;;;;;;;7.22;0.77;;;9.10;99.90;;;;;;4960839;28;20500;-64
2024/01/03 11:59:25;;;;;;;7.22;1.48;;;9.10;99.90;;;;;;4962111;28;20047;-64
2024/01/03 12:02:00;;;;;;;9.05;1.15;;;9.10;99.90;;;;;;4960506;28;20034;-64
2024/01/03 12:04:27;;;;;;;7.03;1.15;;;9.10;99.90;;;;;;4965956;28;20696;-65
2024/01/03 12:06:57;;;;;;;11.35;1.63;;;9.10;99.90;;;;;;4966370;28;20035;-65
2024/01/03 12:09:29;;;;;;;12.45;1.88;;;9.20;99.90;;;;;;4965450;28;20090;-65
2024/01/03 12:11:55;;;;;;;14.75;2.22;;;9.20;99.90;;;;;;4964969;28;20496;-65
2024/01/03 12:14:21;;;;;;;7.97;1.40;;;9.20;99.90;;;;;;4967813;28;20047;-65
2024/01/03 12:16:48;;;;;;;12.07;1.63;;;9.20;99.90;;;;;;4966350;28;20053;-64
2024/01/03 12:19:27;;;;;;;10.98;1.42;;;9.30;99.90;;;;;;4967479;28;20067;-65
2024/01/03 12:21:54;;;;;;;10.73;0.95;;;9.20;99.90;;;;;;4965197;28;20039;-64
2024/01/03 12:24:41;;;;;;;11.15;1.30;;;9.20;99.90;;;;;;4965301;28;20563;-64
2024/01/03 12:27:08;;;;;;;18.50;1.65;;;9.20;99.90;;;;;;4969428;28;20449;-65
2024/01/03 12:29:34;;;;;;;6.00;0.77;;;9.20;99.90;;;;;;4964671;28;20050;-64
2024/01/03 12:32:14;;;;;;;8.13;1.13;;;9.20;99.90;;;;;;4964763;28;20115;-64
2024/01/03 12:34:40;;;;;;;11.18;1.73;;;9.10;99.90;;;;;;4979805;28;20047;-64
2024/01/03 12:37:06;;;;;;;5.32;1.55;;;9.10;99.90;;;;;;4963197;28;20049;-64
2024/01/03 12:39:36;;;;;;;6.00;0.52;;;9.20;99.90;;;;;;4964941;28;20054;-65
2024/01/03 12:42:08;;;;;;;5.97;0.73;;;9.10;99.90;;;;;;4965198;28;20035;-64
2024/01/03 12:44:42;;;;;;;6.57;0.90;;;9.10;99.90;;;;;;4963790;28;20030;-64
2024/01/03 12:47:10;;;;;;;8.35;1.30;;;9.10;99.90;;;;;;4966187;28;20122;-64
2024/01/03 12:49:40;;;;;;;9.23;1.48;;;9.10;99.90;;;;;;4964455;28;20247;-64